Time;durP1;ratioP1;P1;durP2;ratioP2;P2;SDS_P1;SDS_P2;PMS_P1;PMS_P2;Temp;Humidity;BMP_temperature;BMP_pressure;BME280_temperature;BME280_humidity;BME280_pressure;Samples;Min_cycle;Max_cycle;Signal;HPM_P1;HPM_P2
2022/11/13 00:01:47;;;;;;;23.25;12.27;;;;;;;;;;4994588;28;20100;-83
2022/11/13 00:04:13;;;;;;;29.23;12.02;;;;;;;;;;4978631;28;20491;-82
2022/11/13 00:06:39;;;;;;;24.67;12.00;;;;;;;;;;4994862;28;20041;-82
2022/11/13 00:09:05;;;;;;;23.25;12.18;;;;;;;;;;4978502;28;20049;-82
2022/11/13 00:11:31;;;;;;;25.38;13.15;;;;;;;;;;4994579;28;20026;-82
2022/11/13 00:13:58;;;;;;;25.30;12.70;;;;;;;;;;5012306;28;20038;-82
2022/11/13 00:16:24;;;;;;;21.00;11.38;;;;;;;;;;5012189;28;20034;-82
2022/11/13 00:18:50;;;;;;;32.80;13.15;;;;;;;;;;5012265;28;20026;-82
2022/11/13 00:21:17;;;;;;;28.40;13.13;;;;;;;;;;4994501;28;20026;-82
2022/11/13 00:23:44;;;;;;;28.67;12.63;;;;;;;;;;5011953;28;20117;-82
2022/11/13 00:26:11;;;;;;;29.83;12.45;;;;;;;;;;4994616;28;20041;-82
2022/11/13 00:28:38;;;;;;;28.25;12.38;;;;;;;;;;5014802;28;20022;-82
2022/11/13 00:31:05;;;;;;;24.40;12.50;;;;;;;;;;5005857;28;20124;-82
2022/11/13 00:33:31;;;;;;;29.67;12.73;;;;;;;;;;5018044;28;20456;-81
2022/11/13 00:36:17;;;;;;;24.35;12.30;;;;;;;;;;5017771;28;20036;-82
2022/11/13 00:38:43;;;;;;;24.27;12.15;;;;;;;;;;5035562;28;20682;-82
2022/11/13 00:41:09;;;;;;;22.42;11.55;;;;;;;;;;5009503;28;20042;-82
2022/11/13 00:43:36;;;;;;;27.90;11.52;;;;;;;;;;4994608;28;20085;-82
2022/11/13 00:46:02;;;;;;;26.30;11.40;;;;;;;;;;4996153;28;20072;-82
2022/11/13 00:48:28;;;;;;;26.05;11.75;;;;;;;;;;4994814;28;20030;-82
2022/11/13 00:50:54;;;;;;;19.77;11.07;;;;;;;;;;4994702;28;20608;-82
2022/11/13 00:53:20;;;;;;;20.83;10.43;;;;;;;;;;4994563;28;20422;-82
2022/11/13 00:55:47;;;;;;;19.75;10.57;;;;;;;;;;4994556;28;20113;-82
2022/11/13 00:58:13;;;;;;;23.92;10.50;;;;;;;;;;4995842;28;20026;-82
2022/11/13 01:00:39;;;;;;;22.00;10.90;;;;;;;;;;4995930;28;20358;-82
2022/11/13 01:03:06;;;;;;;21.08;11.02;;;;;;;;;;4994225;28;20030;-82
2022/11/13 01:05:35;;;;;;;20.30;10.27;;;;;;;;;;4994503;28;20092;-82
2022/11/13 01:08:01;;;;;;;21.83;10.98;;;;;;;;;;4995526;28;20049;-82
2022/11/13 01:10:27;;;;;;;21.00;9.77;;;;;;;;;;4994440;28;20093;-82
2022/11/13 01:12:53;;;;;;;15.52;9.55;;;;;;;;;;4994137;28;20052;-82
2022/11/13 01:15:19;;;;;;;16.42;9.88;;;;;;;;;;4995620;28;20035;-82
2022/11/13 01:17:45;;;;;;;20.55;10.73;;;;;;;;;;4994067;28;20022;-82
2022/11/13 01:20:11;;;;;;;21.02;9.75;;;;;;;;;;4994215;28;20022;-82
2022/11/13 01:22:37;;;;;;;20.02;10.20;;;;;;;;;;4995428;28;20026;-82
2022/11/13 01:25:04;;;;;;;17.63;10.50;;;;;;;;;;4994006;28;20034;-82
2022/11/13 01:27:30;;;;;;;18.27;11.00;;;;;;;;;;4994165;28;20039;-82
2022/11/13 01:29:56;;;;;;;20.40;10.77;;;;;;;;;;4993930;28;20097;-82
2022/11/13 01:32:22;;;;;;;19.85;9.90;;;;;;;;;;4977361;28;20370;-82
2022/11/13 01:34:48;;;;;;;14.10;8.82;;;;;;;;;;4974317;28;20458;-82
2022/11/13 01:37:14;;;;;;;18.60;9.90;;;;;;;;;;4975770;28;20107;-82
2022/11/13 01:39:40;;;;;;;17.77;9.27;;;;;;;;;;4974388;28;20362;-82
2022/11/13 01:42:06;;;;;;;21.40;9.93;;;;;;;;;;4988460;28;20407;-82
2022/11/13 01:44:49;;;;;;;17.13;10.40;;;;;;;;;;4993746;28;20030;-82
2022/11/13 01:47:16;;;;;;;20.13;10.48;;;;;;;;;;4993679;28;20030;-82
2022/11/13 01:49:42;;;;;;;20.38;9.95;;;;;;;;;;4995026;28;20022;-82
2022/11/13 01:52:14;;;;;;;26.58;10.95;;;;;;;;;;4994744;28;20045;-82
2022/11/13 01:54:43;;;;;;;21.02;10.32;;;;;;;;;;4994601;28;20113;-82
2022/11/13 01:57:09;;;;;;;17.75;9.98;;;;;;;;;;4993182;28;20033;-82
2022/11/13 01:59:38;;;;;;;21.60;10.57;;;;;;;;;;4993334;28;20034;-83
2022/11/13 02:02:04;;;;;;;20.98;10.30;;;;;;;;;;4993461;28;20069;-82
2022/11/13 02:04:30;;;;;;;19.27;9.95;;;;;;;;;;4993540;28;20109;-82
2022/11/13 02:07:01;;;;;;;19.90;10.57;;;;;;;;;;4993352;28;20480;-82
2022/11/13 02:09:30;;;;;;;22.17;10.57;;;;;;;;;;4993191;28;20033;-82
2022/11/13 02:11:56;;;;;;;23.55;10.57;;;;;;;;;;4993187;28;20042;-82
2022/11/13 02:14:25;;;;;;;27.77;11.10;;;;;;;;;;4993082;28;20034;-82
2022/11/13 02:16:53;;;;;;;22.67;10.07;;;;;;;;;;4994571;28;20023;-82
2022/11/13 02:19:31;;;;;;;20.77;10.63;;;;;;;;;;4993061;28;20538;-82
2022/11/13 02:22:05;;;;;;;17.58;9.30;;;;;;;;;;4994507;28;20059;-82
2022/11/13 02:24:42;;;;;;;24.02;9.30;;;;;;;;;;4994528;28;20034;-82
2022/11/13 02:27:17;;;;;;;20.67;9.35;;;;;;;;;;4994269;28;20421;-82
2022/11/13 02:29:43;;;;;;;14.57;9.15;;;;;;;;;;4992982;28;20014;-82
2022/11/13 02:32:09;;;;;;;12.93;7.82;;;;;;;;;;4973263;28;20026;-82
2022/11/13 02:34:35;;;;;;;19.75;8.18;;;;;;;;;;4974580;28;20027;-82
2022/11/13 02:37:01;;;;;;;14.07;8.43;;;;;;;;;;4973233;28;20027;-82
2022/11/13 02:39:27;;;;;;;13.70;8.38;;;;;;;;;;4973251;28;20054;-82
2022/11/13 02:41:53;;;;;;;13.93;8.32;;;;;;;;;;4996566;28;20076;-82
2022/11/13 02:44:19;;;;;;;16.70;8.13;;;;;;;;;;4998932;28;20037;-82
2022/11/13 02:46:45;;;;;;;15.77;8.18;;;;;;;;;;5015473;28;20036;-82
2022/11/13 02:49:11;;;;;;;18.80;8.90;;;;;;;;;;5033003;28;20033;-82
2022/11/13 02:51:37;;;;;;;15.02;9.10;;;;;;;;;;5014918;28;20076;-82
2022/11/13 02:54:04;;;;;;;12.75;8.35;;;;;;;;;;5015211;28;20143;-82
2022/11/13 02:56:30;;;;;;;20.23;9.45;;;;;;;;;;5015379;28;20392;-82
2022/11/13 02:58:56;;;;;;;14.80;8.38;;;;;;;;;;5014909;28;20036;-82
2022/11/13 03:01:22;;;;;;;15.23;9.07;;;;;;;;;;5014884;28;20029;-82
2022/11/13 03:03:48;;;;;;;16.65;9.23;;;;;;;;;;5032653;28;20049;-82
2022/11/13 03:06:14;;;;;;;19.27;9.32;;;;;;;;;;5014603;28;20029;-82
2022/11/13 03:08:40;;;;;;;16.85;8.90;;;;;;;;;;5014882;28;20030;-82
2022/11/13 03:11:07;;;;;;;17.35;8.70;;;;;;;;;;5014673;28;20099;-82
2022/11/13 03:13:33;;;;;;;17.20;8.18;;;;;;;;;;5032711;28;20076;-82
2022/11/13 03:16:16;;;;;;;13.50;8.18;;;;;;;;;;5032527;28;20021;-82
2022/11/13 03:18:42;;;;;;;17.15;8.90;;;;;;;;;;5014789;28;20095;-82
2022/11/13 03:21:09;;;;;;;14.15;8.18;;;;;;;;;;5032496;28;20091;-82
2022/11/13 03:23:36;;;;;;;15.93;8.93;;;;;;;;;;5032433;28;20115;-82
2022/11/13 03:26:04;;;;;;;14.80;7.97;;;;;;;;;;5032573;28;20029;-82
2022/11/13 03:28:30;;;;;;;14.80;8.18;;;;;;;;;;5032511;28;20025;-82
2022/11/13 03:30:56;;;;;;;18.35;9.15;;;;;;;;;;5008066;28;20847;-82
2022/11/13 03:33:22;;;;;;;14.10;8.40;;;;;;;;;;5011386;28;20424;-82
2022/11/13 03:35:48;;;;;;;18.23;8.50;;;;;;;;;;5012746;28;20050;-82
2022/11/13 03:38:14;;;;;;;13.98;8.48;;;;;;;;;;5012549;28;20069;-82
2022/11/13 03:40:41;;;;;;;12.80;7.60;;;;;;;;;;5011383;28;20022;-82
2022/11/13 03:43:07;;;;;;;17.20;9.10;;;;;;;;;;5026527;28;20555;-82
2022/11/13 03:45:34;;;;;;;11.80;7.20;;;;;;;;;;5031939;28;20452;-82
2022/11/13 03:48:00;;;;;;;13.70;7.97;;;;;;;;;;5014603;28;20045;-82
2022/11/13 03:50:26;;;;;;;14.68;8.50;;;;;;;;;;5032080;28;20457;-82
2022/11/13 03:52:52;;;;;;;13.77;7.93;;;;;;;;;;5014400;28;20025;-82
2022/11/13 03:55:18;;;;;;;14.15;7.57;;;;;;;;;;5032207;28;20034;-82
2022/11/13 03:57:46;;;;;;;15.95;8.50;;;;;;;;;;5014680;28;20460;-82
2022/11/13 04:00:13;;;;;;;13.80;7.90;;;;;;;;;;5010683;28;20053;-82
2022/11/13 04:02:39;;;;;;;15.27;7.93;;;;;;;;;;5012006;28;20022;-82
2022/11/13 04:05:05;;;;;;;14.13;7.55;;;;;;;;;;5014783;28;20452;-82
2022/11/13 04:07:32;;;;;;;15.95;8.18;;;;;;;;;;5016180;28;20045;-82
2022/11/13 04:09:58;;;;;;;16.10;7.40;;;;;;;;;;5014938;28;20065;-82
2022/11/13 04:12:24;;;;;;;12.82;7.60;;;;;;;;;;4998628;28;20030;-82
2022/11/13 04:14:50;;;;;;;14.57;7.45;;;;;;;;;;5014939;28;20040;-82
2022/11/13 04:17:16;;;;;;;16.95;7.55;;;;;;;;;;4998512;28;20034;-82
2022/11/13 04:19:42;;;;;;;14.38;7.70;;;;;;;;;;5014736;28;20022;-82
2022/11/13 04:22:08;;;;;;;12.13;7.22;;;;;;;;;;4998452;28;20030;-82
2022/11/13 04:24:34;;;;;;;14.13;7.45;;;;;;;;;;5014586;28;20065;-82
2022/11/13 04:27:00;;;;;;;9.68;6.57;;;;;;;;;;5014555;28;20026;-82
2022/11/13 04:29:26;;;;;;;15.25;7.93;;;;;;;;;;5015965;28;20025;-81
2022/11/13 04:31:52;;;;;;;15.63;8.43;;;;;;;;;;5028659;28;20036;-81
2022/11/13 04:34:18;;;;;;;13.98;7.53;;;;;;;;;;5035861;28;20018;-82
2022/11/13 04:36:44;;;;;;;12.38;7.18;;;;;;;;;;5020521;28;20026;-82
2022/11/13 04:39:10;;;;;;;12.10;7.18;;;;;;;;;;5001550;28;20029;-82
2022/11/13 04:44:21;;;;;;;15.55;7.65;;;;;;;;;;5035664;28;20123;-82
2022/11/13 04:46:47;;;;;;;13.75;6.88;;;;;;;;;;5017422;28;20033;-82
2022/11/13 04:49:13;;;;;;;12.55;6.80;;;;;;;;;;5017351;28;20029;-82
2022/11/13 04:51:39;;;;;;;12.65;7.28;;;;;;;;;;5017125;28;20056;-82
2022/11/13 04:54:05;;;;;;;11.88;7.00;;;;;;;;;;5034890;28;20040;-82
2022/11/13 04:56:31;;;;;;;15.45;7.50;;;;;;;;;;5017110;28;20032;-82
2022/11/13 04:58:57;;;;;;;15.32;7.30;;;;;;;;;;5023023;28;20468;-81
2022/11/13 05:01:23;;;;;;;14.13;6.82;;;;;;;;;;5015288;28;20396;-82
2022/11/13 05:03:49;;;;;;;11.75;7.10;;;;;;;;;;5031586;28;20104;-82
2022/11/13 05:06:15;;;;;;;14.27;7.40;;;;;;;;;;5013903;28;20030;-82
2022/11/13 05:08:41;;;;;;;11.35;6.75;;;;;;;;;;5012762;28;20037;-82
2022/11/13 05:11:07;;;;;;;12.70;7.28;;;;;;;;;;5034908;28;20140;-82
2022/11/13 05:13:34;;;;;;;14.25;6.50;;;;;;;;;;5016857;28;20360;-82
2022/11/13 05:16:01;;;;;;;13.68;7.00;;;;;;;;;;5011509;28;20018;-82
2022/11/13 05:18:27;;;;;;;12.25;6.55;;;;;;;;;;5021317;28;20105;-82
2022/11/13 05:20:53;;;;;;;11.68;6.55;;;;;;;;;;4997439;28;20029;-82
2022/11/13 05:23:19;;;;;;;9.75;5.97;;;;;;;;;;4996854;28;20120;-82
2022/11/13 05:25:45;;;;;;;13.93;6.90;;;;;;;;;;5002018;28;20080;-82
2022/11/13 05:28:11;;;;;;;13.95;6.28;;;;;;;;;;5016859;28;20121;-82
2022/11/13 05:30:37;;;;;;;11.80;6.30;;;;;;;;;;5016518;28;20055;-82
2022/11/13 05:33:03;;;;;;;11.63;6.28;;;;;;;;;;5016728;28;20029;-82
2022/11/13 05:35:29;;;;;;;10.85;5.63;;;;;;;;;;5034282;28;20082;-82
2022/11/13 05:37:55;;;;;;;11.73;6.30;;;;;;;;;;5016320;28;20159;-82
2022/11/13 05:40:22;;;;;;;12.85;5.70;;;;;;;;;;5016535;28;20060;-82
2022/11/13 05:42:48;;;;;;;12.73;5.95;;;;;;;;;;4995019;28;20061;-82
2022/11/13 05:45:14;;;;;;;9.70;5.82;;;;;;;;;;5013146;28;20033;-82
2022/11/13 05:47:40;;;;;;;10.98;6.15;;;;;;;;;;4997031;28;20026;-82
2022/11/13 05:50:06;;;;;;;11.77;5.88;;;;;;;;;;4996958;28;20037;-82
2022/11/13 05:52:32;;;;;;;11.18;6.65;;;;;;;;;;5012902;28;20117;-82
2022/11/13 05:54:58;;;;;;;11.65;6.05;;;;;;;;;;5030184;28;20030;-82
2022/11/13 05:57:24;;;;;;;13.35;5.72;;;;;;;;;;5033808;28;20034;-82
2022/11/13 05:59:50;;;;;;;9.95;5.57;;;;;;;;;;5030139;28;20029;-82
2022/11/13 06:02:16;;;;;;;12.20;5.90;;;;;;;;;;5033844;28;20025;-82
2022/11/13 06:04:42;;;;;;;13.10;5.93;;;;;;;;;;5034111;28;20029;-82
2022/11/13 06:07:08;;;;;;;11.32;6.00;;;;;;;;;;5033881;28;20030;-82
2022/11/13 06:09:34;;;;;;;13.30;5.53;;;;;;;;;;5015737;28;20029;-83
2022/11/13 06:12:00;;;;;;;11.07;5.38;;;;;;;;;;4999535;28;20029;-83
2022/11/13 06:14:26;;;;;;;11.15;5.93;;;;;;;;;;5013373;28;20052;-82
2022/11/13 06:16:52;;;;;;;10.55;5.93;;;;;;;;;;4996372;28;20384;-83
2022/11/13 06:19:18;;;;;;;9.45;5.75;;;;;;;;;;5012381;28;20487;-82
2022/11/13 06:21:44;;;;;;;10.20;5.40;;;;;;;;;;5013798;28;20030;-82
2022/11/13 06:24:11;;;;;;;7.53;5.03;;;;;;;;;;5012663;28;20069;-82
2022/11/13 06:26:38;;;;;;;8.98;5.18;;;;;;;;;;5013048;28;20448;-82
2022/11/13 06:29:04;;;;;;;10.88;5.05;;;;;;;;;;5017336;28;20492;-82
2022/11/13 06:31:32;;;;;;;9.73;5.07;;;;;;;;;;5010474;28;20080;-82
2022/11/13 06:33:58;;;;;;;8.32;4.72;;;;;;;;;;5033366;28;20025;-83
2022/11/13 06:36:26;;;;;;;8.93;4.55;;;;;;;;;;5029949;28;20064;-82
2022/11/13 06:38:52;;;;;;;8.23;4.57;;;;;;;;;;4995858;28;20022;-83
2022/11/13 06:41:20;;;;;;;9.05;4.93;;;;;;;;;;4981039;28;20042;-83
2022/11/13 06:43:46;;;;;;;11.55;5.07;;;;;;;;;;5032929;28;20033;-82
2022/11/13 06:46:22;;;;;;;7.35;4.53;;;;;;;;;;5031302;28;20025;-82
2022/11/13 06:48:49;;;;;;;8.60;5.03;;;;;;;;;;4995593;28;20121;-82
2022/11/13 06:51:19;;;;;;;7.57;4.60;;;;;;;;;;4995888;28;20034;-82
2022/11/13 06:53:46;;;;;;;8.15;4.78;;;;;;;;;;5001276;28;20029;-83
2022/11/13 06:56:12;;;;;;;9.18;4.70;;;;;;;;;;5032951;28;20060;-82
2022/11/13 06:58:38;;;;;;;9.27;4.95;;;;;;;;;;5004290;28;20091;-82
2022/11/13 07:01:08;;;;;;;16.70;4.88;;;;;;;;;;5027175;28;20080;-82
2022/11/13 07:03:34;;;;;;;9.85;4.78;;;;;;;;;;5050937;28;20480;-82
2022/11/13 07:06:01;;;;;;;8.75;4.47;;;;;;;;;;5039326;28;20422;-82
2022/11/13 07:08:27;;;;;;;8.63;4.82;;;;;;;;;;5032702;28;20163;-83
2022/11/13 07:10:54;;;;;;;7.93;4.57;;;;;;;;;;5014720;28;20034;-83
2022/11/13 07:13:20;;;;;;;11.93;4.95;;;;;;;;;;5014995;28;20425;-83
2022/11/13 07:15:46;;;;;;;14.77;4.75;;;;;;;;;;5032440;28;20021;-83
2022/11/13 07:18:12;;;;;;;8.95;4.60;;;;;;;;;;5032424;28;20021;-82
2022/11/13 07:20:39;;;;;;;7.10;4.55;;;;;;;;;;5014978;28;20078;-83
2022/11/13 07:23:05;;;;;;;8.77;4.60;;;;;;;;;;5032292;28;20525;-83
2022/11/13 07:25:31;;;;;;;9.88;4.63;;;;;;;;;;5014701;28;20041;-83
2022/11/13 07:27:57;;;;;;;6.78;4.20;;;;;;;;;;5032277;28;20025;-82
2022/11/13 07:30:23;;;;;;;17.38;5.57;;;;;;;;;;5014387;28;20125;-83
2022/11/13 07:32:49;;;;;;;8.60;4.57;;;;;;;;;;5014306;28;20030;-82
2022/11/13 07:35:15;;;;;;;10.65;5.30;;;;;;;;;;5022327;28;20021;-83
2022/11/13 07:37:42;;;;;;;9.48;4.55;;;;;;;;;;5034145;28;20036;-83
2022/11/13 07:40:08;;;;;;;8.32;4.63;;;;;;;;;;5034163;28;20024;-82
2022/11/13 07:42:35;;;;;;;7.10;4.63;;;;;;;;;;5020781;28;20049;-83
2022/11/13 07:45:01;;;;;;;10.52;5.88;;;;;;;;;;5031953;28;20025;-83
2022/11/13 07:47:27;;;;;;;10.27;5.13;;;;;;;;;;5014455;28;20442;-83
2022/11/13 07:49:53;;;;;;;13.95;5.07;;;;;;;;;;5031936;28;20022;-83
2022/11/13 07:52:19;;;;;;;11.57;4.97;;;;;;;;;;5013896;28;20033;-83
2022/11/13 07:54:45;;;;;;;8.25;4.68;;;;;;;;;;5034755;28;20038;-83
2022/11/13 07:57:12;;;;;;;9.38;5.10;;;;;;;;;;5014367;28;20021;-79
2022/11/13 07:59:38;;;;;;;9.90;5.72;;;;;;;;;;5031630;28;20030;-78
2022/11/13 08:02:04;;;;;;;9.35;5.40;;;;;;;;;;5031712;28;20080;-78
2022/11/13 08:04:30;;;;;;;10.63;5.82;;;;;;;;;;5016000;28;20018;-78
2022/11/13 08:06:56;;;;;;;8.40;5.25;;;;;;;;;;5020454;28;20071;-78
2022/11/13 08:09:23;;;;;;;11.02;6.00;;;;;;;;;;5031817;28;20092;-79
2022/11/13 08:11:49;;;;;;;14.85;6.10;;;;;;;;;;5031650;28;20472;-79
2022/11/13 08:14:15;;;;;;;10.93;5.70;;;;;;;;;;5031577;28;20587;-79
2022/11/13 08:16:41;;;;;;;10.93;6.20;;;;;;;;;;5020296;28;20022;-78
2022/11/13 08:19:07;;;;;;;13.57;6.93;;;;;;;;;;5016906;28;20025;-78
2022/11/13 08:21:34;;;;;;;16.23;8.55;;;;;;;;;;5031854;28;20041;-78
2022/11/13 08:24:00;;;;;;;14.57;8.18;;;;;;;;;;5034697;28;20397;-78
2022/11/13 08:26:26;;;;;;;14.50;7.60;;;;;;;;;;5031510;28;20025;-78
2022/11/13 08:28:52;;;;;;;15.73;7.20;;;;;;;;;;5015876;28;20030;-78
2022/11/13 08:31:19;;;;;;;13.95;7.38;;;;;;;;;;5011219;28;20498;-79
2022/11/13 08:33:45;;;;;;;16.20;8.10;;;;;;;;;;5031418;28;20030;-79
2022/11/13 08:36:11;;;;;;;13.40;7.50;;;;;;;;;;5031688;28;20084;-78
2022/11/13 08:38:37;;;;;;;13.15;7.93;;;;;;;;;;5016609;28;20054;-78
2022/11/13 08:41:05;;;;;;;14.07;7.93;;;;;;;;;;5011169;28;20024;-78
2022/11/13 08:43:31;;;;;;;15.73;9.23;;;;;;;;;;5030637;28;20357;-78
2022/11/13 08:45:57;;;;;;;18.73;9.50;;;;;;;;;;5022396;28;20032;-79
2022/11/13 08:48:24;;;;;;;13.00;8.57;;;;;;;;;;5021506;28;20032;-79
2022/11/13 08:50:54;;;;;;;18.33;9.70;;;;;;;;;;5019373;28;20392;-79
2022/11/13 08:53:21;;;;;;;15.88;8.98;;;;;;;;;;5034951;28;20030;-79
2022/11/13 08:55:47;;;;;;;17.40;8.82;;;;;;;;;;5008351;28;20029;-79
2022/11/13 08:58:13;;;;;;;15.95;8.70;;;;;;;;;;5015578;28;20038;-79
2022/11/13 09:00:39;;;;;;;12.13;7.38;;;;;;;;;;5039434;28;20017;-79
2022/11/13 09:03:05;;;;;;;12.23;7.05;;;;;;;;;;5054899;28;20069;-79
2022/11/13 09:05:31;;;;;;;12.77;7.70;;;;;;;;;;5055043;28;20071;-79
2022/11/13 09:07:58;;;;;;;13.45;7.88;;;;;;;;;;5055203;28;20029;-79
2022/11/13 09:10:25;;;;;;;12.93;8.18;;;;;;;;;;5037091;28;20036;-80
2022/11/13 09:12:58;;;;;;;13.25;6.65;;;;;;;;;;5054787;28;20021;-80
2022/11/13 09:15:25;;;;;;;10.65;6.32;;;;;;;;;;5032271;28;20041;-79
2022/11/13 09:17:51;;;;;;;14.98;7.20;;;;;;;;;;5015163;28;20029;-79
2022/11/13 09:20:17;;;;;;;10.05;6.72;;;;;;;;;;5033096;28;20025;-79
2022/11/13 09:22:43;;;;;;;15.48;7.10;;;;;;;;;;5034788;28;20396;-79
2022/11/13 09:25:09;;;;;;;14.73;5.53;;;;;;;;;;5034779;28;20038;-79
2022/11/13 09:27:35;;;;;;;12.63;6.53;;;;;;;;;;5017227;28;20036;-79
2022/11/13 09:30:01;;;;;;;12.55;6.10;;;;;;;;;;5034757;28;20038;-79
2022/11/13 09:32:27;;;;;;;11.45;6.45;;;;;;;;;;5033829;28;20017;-79
2022/11/13 09:34:53;;;;;;;13.85;6.32;;;;;;;;;;5034588;28;20047;-79
2022/11/13 09:37:19;;;;;;;14.93;6.97;;;;;;;;;;5034279;28;20079;-80
2022/11/13 09:39:45;;;;;;;12.95;7.00;;;;;;;;;;5034500;28;20476;-79
2022/11/13 09:42:20;;;;;;;12.02;5.20;;;;;;;;;;5032546;28;20484;-79
2022/11/13 09:44:55;;;;;;;15.48;5.90;;;;;;;;;;5026156;28;20109;-79
2022/11/13 09:47:23;;;;;;;10.68;5.30;;;;;;;;;;5031419;28;20057;-80
2022/11/13 09:49:51;;;;;;;13.38;5.47;;;;;;;;;;5026159;28;20049;-80
2022/11/13 09:52:28;;;;;;;9.55;5.25;;;;;;;;;;5022905;28;20426;-80
2022/11/13 09:54:54;;;;;;;14.00;5.60;;;;;;;;;;4998752;28;20057;-80
2022/11/13 09:57:26;;;;;;;13.18;5.68;;;;;;;;;;5028779;28;20025;-80
2022/11/13 09:59:56;;;;;;;13.07;5.65;;;;;;;;;;5027029;28;20026;-80
2022/11/13 10:02:41;;;;;;;10.68;5.35;;;;;;;;;;5021750;28;20034;-80
2022/11/13 10:05:18;;;;;;;13.02;5.55;;;;;;;;;;5033972;28;20428;-80
2022/11/13 10:07:50;;;;;;;20.35;5.57;;;;;;;;;;5033983;28;20051;-80
2022/11/13 10:10:17;;;;;;;11.60;5.07;;;;;;;;;;5034060;28;20037;-80
2022/11/13 10:12:44;;;;;;;12.60;5.38;;;;;;;;;;5030925;28;20387;-80
2022/11/13 10:15:10;;;;;;;12.55;5.85;;;;;;;;;;5031264;28;20021;-80
2022/11/13 10:17:39;;;;;;;7.90;4.75;;;;;;;;;;5030987;28;20104;-80
2022/11/13 10:20:10;;;;;;;15.23;6.38;;;;;;;;;;5053904;28;20104;-78
2022/11/13 10:22:40;;;;;;;10.35;5.50;;;;;;;;;;5017697;28;20026;-81
2022/11/13 10:25:13;;;;;;;9.77;4.97;;;;;;;;;;5011734;28;20045;-78
2022/11/13 10:27:39;;;;;;;11.48;5.03;;;;;;;;;;5002477;28;20049;-79
2022/11/13 10:30:15;;;;;;;14.20;5.00;;;;;;;;;;5030572;28;20017;-79
2022/11/13 10:32:42;;;;;;;10.15;4.65;;;;;;;;;;5031368;28;20044;-78
2022/11/13 10:35:08;;;;;;;8.93;5.05;;;;;;;;;;5015578;28;20021;-79
2022/11/13 10:38:00;;;;;;;10.25;5.32;;;;;;;;;;5025039;28;20034;-78
2022/11/13 10:40:27;;;;;;;9.02;4.00;;;;;;;;;;4998818;28;20037;-78
2022/11/13 10:42:54;;;;;;;9.55;4.47;;;;;;;;;;4986961;28;20052;-78
2022/11/13 10:45:21;;;;;;;9.35;3.63;;;;;;;;;;4988370;28;20113;-78
2022/11/13 10:47:51;;;;;;;6.07;3.38;;;;;;;;;;4990280;28;20112;-78
2022/11/13 10:50:22;;;;;;;8.50;3.20;;;;;;;;;;4991841;28;20030;-78
2022/11/13 10:52:49;;;;;;;5.82;3.00;;;;;;;;;;4976556;28;20027;-79
2022/11/13 10:55:15;;;;;;;5.97;3.00;;;;;;;;;;4990714;28;20117;-80
2022/11/13 10:57:41;;;;;;;8.77;3.20;;;;;;;;;;4973988;28;20105;-80
2022/11/13 11:00:25;;;;;;;7.70;2.97;;;;;;;;;;4980972;28;20048;-80
2022/11/13 11:02:51;;;;;;;5.90;2.60;;;;;;;;;;4993347;28;20214;-79
2022/11/13 11:05:19;;;;;;;7.57;2.63;;;;;;;;;;4992343;28;20034;-80
2022/11/13 11:07:45;;;;;;;7.10;2.70;;;;;;;;;;4993603;28;20128;-80
2022/11/13 11:10:23;;;;;;;6.45;2.63;;;;;;;;;;4991965;28;20026;-80
2022/11/13 11:13:09;;;;;;;6.13;2.50;;;;;;;;;;4990593;28;20030;-79
2022/11/13 11:15:41;;;;;;;6.55;2.65;;;;;;;;;;4974984;28;20104;-79
2022/11/13 11:18:33;;;;;;;4.00;2.10;;;;;;;;;;4991834;28;20350;-79
2022/11/13 11:21:03;;;;;;;6.47;2.30;;;;;;;;;;4984431;28;20377;-80
2022/11/13 11:23:47;;;;;;;6.57;2.10;;;;;;;;;;4993332;28;20106;-79
2022/11/13 11:26:34;;;;;;;4.75;2.20;;;;;;;;;;4978098;28;20029;-79
2022/11/13 11:29:15;;;;;;;3.55;1.77;;;;;;;;;;4992881;28;20029;-79
2022/11/13 11:32:00;;;;;;;4.13;2.05;;;;;;;;;;4993107;28;20033;-84
2022/11/13 11:34:46;;;;;;;4.32;1.65;;;;;;;;;;4993433;28;20038;-79
2022/11/13 11:37:14;;;;;;;5.53;2.00;;;;;;;;;;4992199;28;20030;-80
2022/11/13 11:39:59;;;;;;;3.85;1.60;;;;;;;;;;4993314;28;20018;-80
2022/11/13 11:42:25;;;;;;;5.00;1.73;;;;;;;;;;5018360;28;20046;-80
2022/11/13 11:44:54;;;;;;;3.28;1.77;;;;;;;;;;5033343;28;20087;-80
2022/11/13 11:47:20;;;;;;;2.40;1.48;;;;;;;;;;5024021;28;20441;-81
2022/11/13 11:49:46;;;;;;;5.13;1.83;;;;;;;;;;5032840;28;20337;-80
2022/11/13 11:52:12;;;;;;;3.25;1.70;;;;;;;;;;5034499;28;20120;-80
2022/11/13 11:54:38;;;;;;;5.15;2.22;;;;;;;;;;5052102;28;20049;-80
2022/11/13 11:57:31;;;;;;;2.88;1.60;;;;;;;;;;5048530;28;20099;-80
2022/11/13 12:00:03;;;;;;;4.40;1.88;;;;;;;;;;4994869;28;20121;-80
2022/11/13 12:02:29;;;;;;;;;;;;;;;;;;5032722;28;20021;-80
2022/11/13 12:04:58;;;;;;;2.53;1.63;;;;;;;;;;5032203;28;19905;-80
2022/11/13 12:07:34;;;;;;;3.65;1.38;;;;;;;;;;5032175;28;20441;-80
2022/11/13 12:10:06;;;;;;;3.53;1.70;;;;;;;;;;5032210;28;20025;-80
2022/11/13 12:12:32;;;;;;;2.47;1.48;;;;;;;;;;5031776;28;20041;-80
2022/11/13 12:15:13;;;;;;;3.85;1.38;;;;;;;;;;5014421;28;20033;-80
2022/11/13 12:17:39;;;;;;;3.30;1.10;;;;;;;;;;5011656;28;20095;-80
2022/11/13 12:20:05;;;;;;;5.25;1.58;;;;;;;;;;5012243;28;20017;-80
2022/11/13 12:22:52;;;;;;;3.70;1.30;;;;;;;;;;5012536;28;20026;-80
2022/11/13 12:25:36;;;;;;;3.10;1.52;;;;;;;;;;4976382;28;20169;-80
2022/11/13 12:28:14;;;;;;;2.55;1.20;;;;;;;;;;5034306;28;20349;-80
2022/11/13 12:30:51;;;;;;;3.08;1.40;;;;;;;;;;5043156;28;20053;-80
2022/11/13 12:33:17;;;;;;;3.10;1.65;;;;;;;;;;5035347;28;20333;-80
2022/11/13 12:35:45;;;;;;;2.17;1.23;;;;;;;;;;5036045;28;20017;-80
2022/11/13 12:38:11;;;;;;;2.42;1.10;;;;;;;;;;5035754;28;20416;-80
2022/11/13 12:40:41;;;;;;;5.70;1.30;;;;;;;;;;5018204;28;20033;-80
2022/11/13 12:43:25;;;;;;;2.15;1.00;;;;;;;;;;5034927;28;20049;-81
2022/11/13 12:45:53;;;;;;;3.67;1.10;;;;;;;;;;5029993;28;20053;-81
2022/11/13 12:48:19;;;;;;;3.17;1.00;;;;;;;;;;5035439;28;20030;-80
2022/11/13 12:50:56;;;;;;;3.38;1.33;;;;;;;;;;5035080;28;20029;-79
2022/11/13 12:53:29;;;;;;;2.90;1.50;;;;;;;;;;5035336;28;20037;-80
2022/11/13 12:55:59;;;;;;;3.08;1.30;;;;;;;;;;5035395;28;20160;-79
2022/11/13 12:58:27;;;;;;;2.20;1.42;;;;;;;;;;5035492;28;20040;-80
2022/11/13 13:00:56;;;;;;;2.83;1.30;;;;;;;;;;5035061;28;20022;-79
2022/11/13 13:03:40;;;;;;;5.63;1.25;;;;;;;;;;5017232;28;20033;-79
2022/11/13 13:06:09;;;;;;;3.40;1.23;;;;;;;;;;5034866;28;20025;-80
2022/11/13 13:08:46;;;;;;;2.10;1.10;;;;;;;;;;5034905;28;20207;-79
2022/11/13 13:11:15;;;;;;;2.25;1.17;;;;;;;;;;5028114;28;20026;-79
2022/11/13 13:13:41;;;;;;;1.52;0.90;;;;;;;;;;5023605;28;20026;-79
2022/11/13 13:16:07;;;;;;;4.30;1.20;;;;;;;;;;5003028;28;20025;-79
2022/11/13 13:18:38;;;;;;;2.20;1.13;;;;;;;;;;5020444;28;20021;-80
2022/11/13 13:21:08;;;;;;;1.88;1.10;;;;;;;;;;5032665;28;20411;-79
2022/11/13 13:23:39;;;;;;;3.42;1.65;;;;;;;;;;5030210;28;20026;-79
2022/11/13 13:26:16;;;;;;;1.98;1.33;;;;;;;;;;5031634;28;20022;-79
2022/11/13 13:28:45;;;;;;;3.22;1.95;;;;;;;;;;5034881;28;20025;-79
2022/11/13 13:31:26;;;;;;;2.70;1.15;;;;;;;;;;5034928;28;20087;-79
2022/11/13 13:33:57;;;;;;;6.47;1.40;;;;;;;;;;5031631;28;20026;-79
2022/11/13 13:36:33;;;;;;;2.63;1.10;;;;;;;;;;5035019;28;20455;-79
2022/11/13 13:39:17;;;;;;;2.55;0.95;;;;;;;;;;5016561;28;20026;-79
2022/11/13 13:41:43;;;;;;;2.33;1.17;;;;;;;;;;5011991;28;20349;-82
2022/11/13 13:44:24;;;;;;;4.38;1.20;;;;;;;;;;5014780;28;20025;-81
2022/11/13 13:46:50;;;;;;;3.35;1.48;;;;;;;;;;5014818;28;20056;-82
2022/11/13 13:49:17;;;;;;;3.35;0.88;;;;;;;;;;5013538;28;20081;-82
2022/11/13 13:51:46;;;;;;;2.58;1.00;;;;;;;;;;5014801;28;20026;-82
2022/11/13 13:54:17;;;;;;;2.00;1.00;;;;;;;;;;5014626;28;20044;-82
2022/11/13 13:56:43;;;;;;;1.77;0.90;;;;;;;;;;5014588;28;20037;-81
2022/11/13 13:59:27;;;;;;;2.67;1.00;;;;;;;;;;5014956;28;20018;-82
2022/11/13 14:01:58;;;;;;;2.22;1.08;;;;;;;;;;5014580;28;20080;-82
2022/11/13 14:04:35;;;;;;;2.45;1.00;;;;;;;;;;5014333;28;20160;-82
2022/11/13 14:07:01;;;;;;;2.50;1.15;;;;;;;;;;5014482;28;20399;-82
2022/11/13 14:09:29;;;;;;;1.50;0.88;;;;;;;;;;5014183;28;20036;-82
2022/11/13 14:12:02;;;;;;;1.70;1.05;;;;;;;;;;5014327;28;20113;-82
2022/11/13 14:14:28;;;;;;;3.88;1.63;;;;;;;;;;5014023;28;20079;-82
2022/11/13 14:16:56;;;;;;;2.60;1.38;;;;;;;;;;5014162;28;20026;-82
2022/11/13 14:19:22;;;;;;;3.35;1.15;;;;;;;;;;5014158;28;20040;-82
2022/11/13 14:21:53;;;;;;;2.88;1.10;;;;;;;;;;5014172;28;20017;-82
2022/11/13 14:24:25;;;;;;;1.08;0.73;;;;;;;;;;5014463;28;20030;-82
2022/11/13 14:26:52;;;;;;;7.93;1.10;;;;;;;;;;5013860;28;20608;-82
2022/11/13 14:29:33;;;;;;;1.85;0.90;;;;;;;;;;4996689;28;20109;-82
2022/11/13 14:32:10;;;;;;;5.63;1.23;;;;;;;;;;5014045;28;20433;-80
2022/11/13 14:34:36;;;;;;;3.53;1.50;;;;;;;;;;5020767;28;20032;-80
2022/11/13 14:37:16;;;;;;;3.38;0.90;;;;;;;;;;5028639;28;20083;-80
2022/11/13 14:39:43;;;;;;;1.63;0.90;;;;;;;;;;5008966;28;20017;-80
2022/11/13 14:42:15;;;;;;;1.45;0.90;;;;;;;;;;5023767;28;20041;-79
2022/11/13 14:44:41;;;;;;;3.75;1.50;;;;;;;;;;5015922;28;20064;-80